sensor_id;sensor_type;location;lat;lon;timestamp;temperature;humidity
69677;DHT22;56914;51.058;9.326;2022-12-29T05:05:26;14.80;65.40
69677;DHT22;56914;51.058;9.326;2022-12-29T05:06:29;14.80;65.20
69677;DHT22;56914;51.058;9.326;2022-12-29T05:07:31;14.70;65.20
69677;DHT22;56914;51.058;9.326;2022-12-29T05:08:35;14.70;65.20
69677;DHT22;56914;51.058;9.326;2022-12-29T05:09:37;14.70;65.10
69677;DHT22;56914;51.058;9.326;2022-12-29T05:10:44;14.70;65.10
69677;DHT22;56914;51.058;9.326;2022-12-29T05:11:47;14.70;65.20
69677;DHT22;56914;51.058;9.326;2022-12-29T05:12:49;14.70;65.20
69677;DHT22;56914;51.058;9.326;2022-12-29T05:13:52;14.80;65.30
69677;DHT22;56914;51.058;9.326;2022-12-29T05:14:54;14.70;65.10
69677;DHT22;56914;51.058;9.326;2022-12-29T05:15:58;14.80;65.10
69677;DHT22;56914;51.058;9.326;2022-12-29T05:17:00;14.70;65.10
69677;DHT22;56914;51.058;9.326;2022-12-29T05:18:03;14.80;65.20
69677;DHT22;56914;51.058;9.326;2022-12-29T05:19:05;14.80;65.10
69677;DHT22;56914;51.058;9.326;2022-12-29T05:20:09;14.80;65.10
69677;DHT22;56914;51.058;9.326;2022-12-29T05:21:13;14.80;65.00
69677;DHT22;56914;51.058;9.326;2022-12-29T05:22:16;14.90;65.10
69677;DHT22;56914;51.058;9.326;2022-12-29T05:23:19;14.90;65.30
69677;DHT22;56914;51.058;9.326;2022-12-29T05:24:22;14.90;65.20
69677;DHT22;56914;51.058;9.326;2022-12-29T05:25:24;14.80;65.30
69677;DHT22;56914;51.058;9.326;2022-12-29T05:26:28;14.80;65.50
69677;DHT22;56914;51.058;9.326;2022-12-29T05:27:30;14.80;65.60
69677;DHT22;56914;51.058;9.326;2022-12-29T05:28:34;14.80;65.60
69677;DHT22;56914;51.058;9.326;2022-12-29T05:29:36;14.80;65.60
69677;DHT22;56914;51.058;9.326;2022-12-29T05:30:39;14.90;65.50
69677;DHT22;56914;51.058;9.326;2022-12-29T05:31:41;14.90;65.50
69677;DHT22;56914;51.058;9.326;2022-12-29T05:32:45;14.90;65.50
69677;DHT22;56914;51.058;9.326;2022-12-29T05:33:47;14.80;65.50
69677;DHT22;56914;51.058;9.326;2022-12-29T05:34:50;14.90;65.50
69677;DHT22;56914;51.058;9.326;2022-12-29T05:35:52;14.90;65.50
69677;DHT22;56914;51.058;9.326;2022-12-29T05:36:57;14.90;65.40
69677;DHT22;56914;51.058;9.326;2022-12-29T05:37:59;14.80;65.50
69677;DHT22;56914;51.058;9.326;2022-12-29T05:39:02;14.90;65.50
69677;DHT22;56914;51.058;9.326;2022-12-29T05:40:06;14.90;65.50
69677;DHT22;56914;51.058;9.326;2022-12-29T05:41:09;14.90;65.60
69677;DHT22;56914;51.058;9.326;2022-12-29T05:42:12;14.90;65.70
69677;DHT22;56914;51.058;9.326;2022-12-29T05:43:15;14.90;65.60
69677;DHT22;56914;51.058;9.326;2022-12-29T05:44:19;14.90;65.90
69677;DHT22;56914;51.058;9.326;2022-12-29T05:45:22;14.80;66.00
69677;DHT22;56914;51.058;9.326;2022-12-29T05:46:24;14.90;66.10
69677;DHT22;56914;51.058;9.326;2022-12-29T05:47:28;14.90;66.10
69677;DHT22;56914;51.058;9.326;2022-12-29T05:48:30;14.90;66.20
69677;DHT22;56914;51.058;9.326;2022-12-29T05:49:38;14.80;66.20
69677;DHT22;56914;51.058;9.326;2022-12-29T05:50:41;14.90;66.20
69677;DHT22;56914;51.058;9.326;2022-12-29T05:51:44;14.90;66.30
69677;DHT22;56914;51.058;9.326;2022-12-29T05:52:47;14.90;66.30
69677;DHT22;56914;51.058;9.326;2022-12-29T05:53:51;14.90;66.30
69677;DHT22;56914;51.058;9.326;2022-12-29T05:54:53;14.90;66.50
69677;DHT22;56914;51.058;9.326;2022-12-29T05:55:56;14.90;66.40
69677;DHT22;56914;51.058;9.326;2022-12-29T05:56:58;14.80;66.50
69677;DHT22;56914;51.058;9.326;2022-12-29T05:58:01;14.80;66.70
69677;DHT22;56914;51.058;9.326;2022-12-29T05:59:03;14.80;66.70
69677;DHT22;56914;51.058;9.326;2022-12-29T06:00:08;14.80;66.60
69677;DHT22;56914;51.058;9.326;2022-12-29T06:01:10;14.90;66.50
69677;DHT22;56914;51.058;9.326;2022-12-29T06:02:14;14.80;66.60
69677;DHT22;56914;51.058;9.326;2022-12-29T06:03:16;14.80;66.70
69677;DHT22;56914;51.058;9.326;2022-12-29T06:04:19;14.80;66.70
69677;DHT22;56914;51.058;9.326;2022-12-29T06:05:22;14.80;66.70
69677;DHT22;56914;51.058;9.326;2022-12-29T06:06:25;14.80;66.70
69677;DHT22;56914;51.058;9.326;2022-12-29T06:07:27;14.80;66.70
69677;DHT22;56914;51.058;9.326;2022-12-29T06:08:32;14.70;66.60
69677;DHT22;56914;51.058;9.326;2022-12-29T06:09:34;14.70;66.80
69677;DHT22;56914;51.058;9.326;2022-12-29T06:10:37;14.70;67.00
69677;DHT22;56914;51.058;9.326;2022-12-29T06:11:39;14.70;67.20
69677;DHT22;56914;51.058;9.326;2022-12-29T06:12:43;14.60;67.30
69677;DHT22;56914;51.058;9.326;2022-12-29T06:13:45;14.60;67.50
69677;DHT22;56914;51.058;9.326;2022-12-29T06:14:48;14.50;67.70
69677;DHT22;56914;51.058;9.326;2022-12-29T06:15:51;14.50;67.80
69677;DHT22;56914;51.058;9.326;2022-12-29T06:16:54;14.50;68.10
69677;DHT22;56914;51.058;9.326;2022-12-29T06:17:57;14.50;68.40
69677;DHT22;56914;51.058;9.326;2022-12-29T06:18:59;14.40;68.50
69677;DHT22;56914;51.058;9.326;2022-12-29T06:20:02;14.30;68.60
69677;DHT22;56914;51.058;9.326;2022-12-29T06:21:05;14.30;68.60
69677;DHT22;56914;51.058;9.326;2022-12-29T06:22:08;14.40;68.80
69677;DHT22;56914;51.058;9.326;2022-12-29T06:23:12;14.40;68.80
69677;DHT22;56914;51.058;9.326;2022-12-29T06:24:17;14.40;68.90
69677;DHT22;56914;51.058;9.326;2022-12-29T06:25:19;14.30;69.00
69677;DHT22;56914;51.058;9.326;2022-12-29T06:26:22;14.30;69.10
69677;DHT22;56914;51.058;9.326;2022-12-29T06:27:24;14.30;69.10
69677;DHT22;56914;51.058;9.326;2022-12-29T06:28:28;14.30;69.20
69677;DHT22;56914;51.058;9.326;2022-12-29T06:29:30;14.30;69.20
69677;DHT22;56914;51.058;9.326;2022-12-29T06:30:33;14.30;69.20
69677;DHT22;56914;51.058;9.326;2022-12-29T06:31:35;14.20;69.00
69677;DHT22;56914;51.058;9.326;2022-12-29T06:32:39;14.20;69.10
69677;DHT22;56914;51.058;9.326;2022-12-29T06:33:41;14.20;69.00
69677;DHT22;56914;51.058;9.326;2022-12-29T06:34:50;14.20;69.00
69677;DHT22;56914;51.058;9.326;2022-12-29T06:35:52;14.20;68.90
69677;DHT22;56914;51.058;9.326;2022-12-29T06:36:55;14.20;68.90
69677;DHT22;56914;51.058;9.326;2022-12-29T06:37:58;14.20;68.80
69677;DHT22;56914;51.058;9.326;2022-12-29T06:39:01;14.20;68.80
69677;DHT22;56914;51.058;9.326;2022-12-29T06:40:06;14.30;68.90
69677;DHT22;56914;51.058;9.326;2022-12-29T06:41:09;14.20;68.90
69677;DHT22;56914;51.058;9.326;2022-12-29T06:42:12;14.20;68.90
69677;DHT22;56914;51.058;9.326;2022-12-29T06:43:15;14.20;68.90
69677;DHT22;56914;51.058;9.326;2022-12-29T06:44:20;14.20;68.80
69677;DHT22;56914;51.058;9.326;2022-12-29T06:45:24;14.20;68.70
69677;DHT22;56914;51.058;9.326;2022-12-29T06:46:26;14.30;68.60
69677;DHT22;56914;51.058;9.326;2022-12-29T06:47:29;14.30;68.50
69677;DHT22;56914;51.058;9.326;2022-12-29T06:48:31;14.30;68.30
69677;DHT22;56914;51.058;9.326;2022-12-29T06:49:35;14.20;68.30
69677;DHT22;56914;51.058;9.326;2022-12-29T06:50:37;14.30;68.30
69677;DHT22;56914;51.058;9.326;2022-12-29T06:51:40;14.20;68.30
69677;DHT22;56914;51.058;9.326;2022-12-29T06:52:42;14.30;68.30
69677;DHT22;56914;51.058;9.326;2022-12-29T06:53:45;14.20;68.20
69677;DHT22;56914;51.058;9.326;2022-12-29T06:54:47;14.20;68.40
69677;DHT22;56914;51.058;9.326;2022-12-29T06:55:52;14.20;68.30
69677;DHT22;56914;51.058;9.326;2022-12-29T06:56:54;14.20;68.20
69677;DHT22;56914;51.058;9.326;2022-12-29T06:57:58;14.20;68.20
69677;DHT22;56914;51.058;9.326;2022-12-29T06:59:02;14.30;68.30
69677;DHT22;56914;51.058;9.326;2022-12-29T07:00:07;14.20;68.20
69677;DHT22;56914;51.058;9.326;2022-12-29T07:01:09;14.20;68.20
69677;DHT22;56914;51.058;9.326;2022-12-29T07:02:13;14.20;68.20
69677;DHT22;56914;51.058;9.326;2022-12-29T07:03:17;14.20;68.30
69677;DHT22;56914;51.058;9.326;2022-12-29T07:04:20;14.20;68.10
69677;DHT22;56914;51.058;9.326;2022-12-29T07:05:22;14.20;68.30
69677;DHT22;56914;51.058;9.326;2022-12-29T07:06:26;14.20;68.10
69677;DHT22;56914;51.058;9.326;2022-12-29T07:07:28;14.20;68.30
69677;DHT22;56914;51.058;9.326;2022-12-29T07:08:32;14.20;68.30
69677;DHT22;56914;51.058;9.326;2022-12-29T07:09:34;14.20;68.30
69677;DHT22;56914;51.058;9.326;2022-12-29T07:10:38;14.30;68.50
69677;DHT22;56914;51.058;9.326;2022-12-29T07:11:41;14.20;68.60
69677;DHT22;56914;51.058;9.326;2022-12-29T07:12:45;14.20;68.70
69677;DHT22;56914;51.058;9.326;2022-12-29T07:13:47;14.20;68.90
69677;DHT22;56914;51.058;9.326;2022-12-29T07:14:50;14.20;69.10
69677;DHT22;56914;51.058;9.326;2022-12-29T07:15:52;14.20;69.20
69677;DHT22;56914;51.058;9.326;2022-12-29T07:16:55;14.20;69.20
69677;DHT22;56914;51.058;9.326;2022-12-29T07:17:58;14.20;69.30
69677;DHT22;56914;51.058;9.326;2022-12-29T07:19:01;14.20;69.20
69677;DHT22;56914;51.058;9.326;2022-12-29T07:20:04;14.20;69.10
69677;DHT22;56914;51.058;9.326;2022-12-29T07:21:07;14.20;69.00
69677;DHT22;56914;51.058;9.326;2022-12-29T07:22:10;14.20;69.00
69677;DHT22;56914;51.058;9.326;2022-12-29T07:23:14;14.30;69.00
69677;DHT22;56914;51.058;9.326;2022-12-29T07:24:16;14.30;68.90
69677;DHT22;56914;51.058;9.326;2022-12-29T07:25:19;14.30;68.90
69677;DHT22;56914;51.058;9.326;2022-12-29T07:26:21;14.30;68.80
69677;DHT22;56914;51.058;9.326;2022-12-29T07:27:26;14.30;68.80
69677;DHT22;56914;51.058;9.326;2022-12-29T07:28:29;14.30;69.10
69677;DHT22;56914;51.058;9.326;2022-12-29T07:29:33;14.30;69.50
69677;DHT22;56914;51.058;9.326;2022-12-29T07:30:37;14.30;69.60
69677;DHT22;56914;51.058;9.326;2022-12-29T07:31:40;14.30;69.80
69677;DHT22;56914;51.058;9.326;2022-12-29T07:32:42;14.30;69.80
69677;DHT22;56914;51.058;9.326;2022-12-29T07:33:46;14.30;69.60
69677;DHT22;56914;51.058;9.326;2022-12-29T07:34:49;14.30;70.20
69677;DHT22;56914;51.058;9.326;2022-12-29T07:35:52;14.30;69.80
69677;DHT22;56914;51.058;9.326;2022-12-29T07:36:54;14.30;69.80
69677;DHT22;56914;51.058;9.326;2022-12-29T07:37:57;14.30;69.70
69677;DHT22;56914;51.058;9.326;2022-12-29T07:39:00;14.40;69.70
69677;DHT22;56914;51.058;9.326;2022-12-29T07:40:04;14.40;69.60
69677;DHT22;56914;51.058;9.326;2022-12-29T07:41:07;14.40;69.40
69677;DHT22;56914;51.058;9.326;2022-12-29T07:42:10;14.40;69.40
69677;DHT22;56914;51.058;9.326;2022-12-29T07:43:14;14.40;69.30
69677;DHT22;56914;51.058;9.326;2022-12-29T07:44:17;14.40;69.30
69677;DHT22;56914;51.058;9.326;2022-12-29T07:45:20;14.40;69.60
69677;DHT22;56914;51.058;9.326;2022-12-29T07:46:22;14.40;69.60
69677;DHT22;56914;51.058;9.326;2022-12-29T07:47:47;14.50;69.60
69677;DHT22;56914;51.058;9.326;2022-12-29T07:48:51;14.50;69.50
69677;DHT22;56914;51.058;9.326;2022-12-29T07:49:53;14.50;69.60
69677;DHT22;56914;51.058;9.326;2022-12-29T07:50:56;14.50;69.50
69677;DHT22;56914;51.058;9.326;2022-12-29T07:51:58;14.50;69.50
69677;DHT22;56914;51.058;9.326;2022-12-29T07:53:02;14.50;69.70
69677;DHT22;56914;51.058;9.326;2022-12-29T07:54:05;14.50;69.70
69677;DHT22;56914;51.058;9.326;2022-12-29T07:55:08;14.50;69.70
69677;DHT22;56914;51.058;9.326;2022-12-29T07:56:11;14.50;69.70
69677;DHT22;56914;51.058;9.326;2022-12-29T07:57:13;14.50;69.70
69677;DHT22;56914;51.058;9.326;2022-12-29T07:58:18;14.40;69.90
69677;DHT22;56914;51.058;9.326;2022-12-29T07:59:20;14.50;70.20
69677;DHT22;56914;51.058;9.326;2022-12-29T08:00:24;14.50;70.20
69677;DHT22;56914;51.058;9.326;2022-12-29T08:01:27;14.50;70.10
69677;DHT22;56914;51.058;9.326;2022-12-29T08:02:31;14.50;70.10
69677;DHT22;56914;51.058;9.326;2022-12-29T08:03:33;14.50;70.20
69677;DHT22;56914;51.058;9.326;2022-12-29T08:04:36;14.50;70.00
69677;DHT22;56914;51.058;9.326;2022-12-29T08:05:39;14.50;70.10
69677;DHT22;56914;51.058;9.326;2022-12-29T08:06:43;14.50;70.00
69677;DHT22;56914;51.058;9.326;2022-12-29T08:07:47;14.50;70.00
69677;DHT22;56914;51.058;9.326;2022-12-29T08:08:50;14.60;69.90
69677;DHT22;56914;51.058;9.326;2022-12-29T08:09:52;14.60;69.70
69677;DHT22;56914;51.058;9.326;2022-12-29T08:10:56;14.60;69.50
69677;DHT22;56914;51.058;9.326;2022-12-29T08:11:58;14.70;69.20
69677;DHT22;56914;51.058;9.326;2022-12-29T08:13:01;14.60;69.30
69677;DHT22;56914;51.058;9.326;2022-12-29T08:14:05;14.70;69.20
69677;DHT22;56914;51.058;9.326;2022-12-29T08:15:10;14.70;69.30
69677;DHT22;56914;51.058;9.326;2022-12-29T08:16:13;14.70;69.00
69677;DHT22;56914;51.058;9.326;2022-12-29T08:17:16;14.70;68.80
69677;DHT22;56914;51.058;9.326;2022-12-29T08:18:19;14.70;68.70
69677;DHT22;56914;51.058;9.326;2022-12-29T08:19:21;14.80;68.70
69677;DHT22;56914;51.058;9.326;2022-12-29T08:20:24;14.80;68.60
69677;DHT22;56914;51.058;9.326;2022-12-29T08:21:27;14.70;68.50
69677;DHT22;56914;51.058;9.326;2022-12-29T08:22:30;14.80;68.50
69677;DHT22;56914;51.058;9.326;2022-12-29T08:23:33;14.80;68.30
69677;DHT22;56914;51.058;9.326;2022-12-29T08:24:35;14.80;68.20
69677;DHT22;56914;51.058;9.326;2022-12-29T08:25:39;14.80;68.10
69677;DHT22;56914;51.058;9.326;2022-12-29T08:26:41;14.90;67.60
69677;DHT22;56914;51.058;9.326;2022-12-29T08:27:44;14.80;67.90
69677;DHT22;56914;51.058;9.326;2022-12-29T08:28:46;14.80;67.90
69677;DHT22;56914;51.058;9.326;2022-12-29T08:29:51;14.80;67.80
69677;DHT22;56914;51.058;9.326;2022-12-29T08:30:57;14.80;67.80
69677;DHT22;56914;51.058;9.326;2022-12-29T08:31:59;14.80;67.80
69677;DHT22;56914;51.058;9.326;2022-12-29T08:33:03;14.80;67.80
69677;DHT22;56914;51.058;9.326;2022-12-29T08:34:06;14.90;67.70
69677;DHT22;56914;51.058;9.326;2022-12-29T08:35:08;14.90;67.60
69677;DHT22;56914;51.058;9.326;2022-12-29T08:36:11;14.90;67.40
69677;DHT22;56914;51.058;9.326;2022-12-29T08:37:14;14.90;67.60
69677;DHT22;56914;51.058;9.326;2022-12-29T08:38:17;14.90;67.40
69677;DHT22;56914;51.058;9.326;2022-12-29T08:39:19;14.80;67.60
69677;DHT22;56914;51.058;9.326;2022-12-29T08:40:22;14.80;67.70
69677;DHT22;56914;51.058;9.326;2022-12-29T08:41:25;14.80;67.90
69677;DHT22;56914;51.058;9.326;2022-12-29T08:42:28;14.80;68.00
69677;DHT22;56914;51.058;9.326;2022-12-29T08:43:33;14.80;68.40
69677;DHT22;56914;51.058;9.326;2022-12-29T08:44:36;14.80;68.50
69677;DHT22;56914;51.058;9.326;2022-12-29T08:45:39;14.80;68.90
69677;DHT22;56914;51.058;9.326;2022-12-29T08:46:43;14.80;68.70
69677;DHT22;56914;51.058;9.326;2022-12-29T08:47:46;14.80;69.00
69677;DHT22;56914;51.058;9.326;2022-12-29T08:48:48;14.80;68.90
69677;DHT22;56914;51.058;9.326;2022-12-29T08:49:51;14.80;69.10
69677;DHT22;56914;51.058;9.326;2022-12-29T08:50:53;14.80;69.30
69677;DHT22;56914;51.058;9.326;2022-12-29T08:51:57;14.80;70.00
69677;DHT22;56914;51.058;9.326;2022-12-29T08:53:00;14.80;70.00
69677;DHT22;56914;51.058;9.326;2022-12-29T08:54:03;14.80;69.70
69677;DHT22;56914;51.058;9.326;2022-12-29T08:55:06;14.80;69.80
69677;DHT22;56914;51.058;9.326;2022-12-29T08:56:10;14.70;70.00
69677;DHT22;56914;51.058;9.326;2022-12-29T08:57:13;14.70;69.60
69677;DHT22;56914;51.058;9.326;2022-12-29T08:58:16;14.70;70.10
69677;DHT22;56914;51.058;9.326;2022-12-29T08:59:19;14.60;70.30
69677;DHT22;56914;51.058;9.326;2022-12-29T09:00:23;14.60;70.60
69677;DHT22;56914;51.058;9.326;2022-12-29T09:01:26;14.60;70.70
69677;DHT22;56914;51.058;9.326;2022-12-29T09:02:30;14.60;70.90
69677;DHT22;56914;51.058;9.326;2022-12-29T09:03:33;14.70;70.70
69677;DHT22;56914;51.058;9.326;2022-12-29T09:04:56;14.70;70.60
69677;DHT22;56914;51.058;9.326;2022-12-29T09:06:00;14.70;70.40
69677;DHT22;56914;51.058;9.326;2022-12-29T09:07:04;14.70;70.00
69677;DHT22;56914;51.058;9.326;2022-12-29T09:08:07;14.70;70.20
69677;DHT22;56914;51.058;9.326;2022-12-29T09:09:10;14.70;70.10
69677;DHT22;56914;51.058;9.326;2022-12-29T09:10:13;14.70;69.90
69677;DHT22;56914;51.058;9.326;2022-12-29T09:11:19;14.70;69.60
69677;DHT22;56914;51.058;9.326;2022-12-29T09:12:22;14.70;69.60
69677;DHT22;56914;51.058;9.326;2022-12-29T09:13:25;14.70;69.00
69677;DHT22;56914;51.058;9.326;2022-12-29T09:14:28;14.80;69.10
69677;DHT22;56914;51.058;9.326;2022-12-29T09:15:30;14.70;69.20
69677;DHT22;56914;51.058;9.326;2022-12-29T09:16:35;14.70;69.30
69677;DHT22;56914;51.058;9.326;2022-12-29T09:17:38;14.70;69.00
69677;DHT22;56914;51.058;9.326;2022-12-29T09:18:45;14.70;69.30
69677;DHT22;56914;51.058;9.326;2022-12-29T09:19:48;14.70;69.70
69677;DHT22;56914;51.058;9.326;2022-12-29T09:20:56;14.70;69.90
69677;DHT22;56914;51.058;9.326;2022-12-29T09:21:59;14.60;70.00
69677;DHT22;56914;51.058;9.326;2022-12-29T09:23:01;14.70;70.00
69677;DHT22;56914;51.058;9.326;2022-12-29T09:24:05;14.70;70.20
69677;DHT22;56914;51.058;9.326;2022-12-29T09:25:08;14.70;70.20
69677;DHT22;56914;51.058;9.326;2022-12-29T09:26:11;14.70;70.30
69677;DHT22;56914;51.058;9.326;2022-12-29T09:27:14;14.70;70.10
69677;DHT22;56914;51.058;9.326;2022-12-29T09:28:17;14.80;70.10
69677;DHT22;56914;51.058;9.326;2022-12-29T09:29:20;14.80;69.90
69677;DHT22;56914;51.058;9.326;2022-12-29T09:30:23;14.80;70.50
69677;DHT22;56914;51.058;9.326;2022-12-29T09:31:26;14.80;69.90
69677;DHT22;56914;51.058;9.326;2022-12-29T09:32:30;14.80;69.90
69677;DHT22;56914;51.058;9.326;2022-12-29T09:33:35;14.80;69.70
69677;DHT22;56914;51.058;9.326;2022-12-29T09:34:38;14.90;69.80
69677;DHT22;56914;51.058;9.326;2022-12-29T09:35:42;14.90;69.70
69677;DHT22;56914;51.058;9.326;2022-12-29T09:36:46;14.90;69.50
69677;DHT22;56914;51.058;9.326;2022-12-29T09:37:48;15.00;69.40
69677;DHT22;56914;51.058;9.326;2022-12-29T09:38:53;15.00;69.90
69677;DHT22;56914;51.058;9.326;2022-12-29T09:39:55;15.00;69.30
69677;DHT22;56914;51.058;9.326;2022-12-29T09:41:06;15.00;69.20
69677;DHT22;56914;51.058;9.326;2022-12-29T09:42:17;15.00;69.10
69677;DHT22;56914;51.058;9.326;2022-12-29T09:43:39;15.00;69.00
69677;DHT22;56914;51.058;9.326;2022-12-29T09:44:57;15.00;69.20
69677;DHT22;56914;51.058;9.326;2022-12-29T09:46:15;15.00;69.10
69677;DHT22;56914;51.058;9.326;2022-12-29T09:47:22;15.00;68.70
69677;DHT22;56914;51.058;9.326;2022-12-29T09:48:32;15.00;68.90
69677;DHT22;56914;51.058;9.326;2022-12-29T09:49:43;15.10;68.80
69677;DHT22;56914;51.058;9.326;2022-12-29T09:50:52;15.20;68.20
69677;DHT22;56914;51.058;9.326;2022-12-29T09:52:04;15.20;68.40
69677;DHT22;56914;51.058;9.326;2022-12-29T09:53:14;15.10;68.10
69677;DHT22;56914;51.058;9.326;2022-12-29T09:54:28;15.10;68.00
69677;DHT22;56914;51.058;9.326;2022-12-29T09:55:38;15.20;68.00
69677;DHT22;56914;51.058;9.326;2022-12-29T09:56:44;15.10;67.80
69677;DHT22;56914;51.058;9.326;2022-12-29T09:57:54;15.10;67.80
69677;DHT22;56914;51.058;9.326;2022-12-29T09:59:11;15.00;67.90
69677;DHT22;56914;51.058;9.326;2022-12-29T10:00:18;15.00;68.00
69677;DHT22;56914;51.058;9.326;2022-12-29T10:01:30;15.00;68.00
69677;DHT22;56914;51.058;9.326;2022-12-29T10:02:38;15.00;68.00
69677;DHT22;56914;51.058;9.326;2022-12-29T10:03:48;15.00;68.10
69677;DHT22;56914;51.058;9.326;2022-12-29T10:04:52;15.00;67.70
69677;DHT22;56914;51.058;9.326;2022-12-29T10:06:05;15.00;67.90
69677;DHT22;56914;51.058;9.326;2022-12-29T10:07:23;15.00;67.70
69677;DHT22;56914;51.058;9.326;2022-12-29T10:08:39;15.00;67.80
69677;DHT22;56914;51.058;9.326;2022-12-29T10:09:53;15.00;67.80
69677;DHT22;56914;51.058;9.326;2022-12-29T10:11:13;15.00;67.60
69677;DHT22;56914;51.058;9.326;2022-12-29T10:12:30;15.00;67.50
69677;DHT22;56914;51.058;9.326;2022-12-29T10:13:46;15.10;67.30
69677;DHT22;56914;51.058;9.326;2022-12-29T10:15:04;15.10;67.40
69677;DHT22;56914;51.058;9.326;2022-12-29T10:16:20;15.10;67.30
69677;DHT22;56914;51.058;9.326;2022-12-29T10:17:34;15.10;66.90
69677;DHT22;56914;51.058;9.326;2022-12-29T10:19:03;15.20;67.20
69677;DHT22;56914;51.058;9.326;2022-12-29T10:20:25;15.20;66.70
69677;DHT22;56914;51.058;9.326;2022-12-29T10:21:44;15.20;66.70
69677;DHT22;56914;51.058;9.326;2022-12-29T10:23:16;15.20;66.70
69677;DHT22;56914;51.058;9.326;2022-12-29T10:24:22;15.30;66.10
69677;DHT22;56914;51.058;9.326;2022-12-29T10:25:30;15.20;66.20
69677;DHT22;56914;51.058;9.326;2022-12-29T10:26:40;15.20;66.20
69677;DHT22;56914;51.058;9.326;2022-12-29T10:27:46;15.30;66.30
69677;DHT22;56914;51.058;9.326;2022-12-29T10:28:54;15.30;66.10
69677;DHT22;56914;51.058;9.326;2022-12-29T10:30:02;15.30;65.70
69677;DHT22;56914;51.058;9.326;2022-12-29T10:31:09;15.30;65.70
69677;DHT22;56914;51.058;9.326;2022-12-29T10:32:26;15.30;65.20
69677;DHT22;56914;51.058;9.326;2022-12-29T10:33:36;15.30;65.30
69677;DHT22;56914;51.058;9.326;2022-12-29T10:34:47;15.30;65.60
69677;DHT22;56914;51.058;9.326;2022-12-29T10:35:52;15.30;65.40
69677;DHT22;56914;51.058;9.326;2022-12-29T10:37:00;15.30;65.30
69677;DHT22;56914;51.058;9.326;2022-12-29T10:38:15;15.30;65.40
69677;DHT22;56914;51.058;9.326;2022-12-29T10:39:28;15.30;65.40
69677;DHT22;56914;51.058;9.326;2022-12-29T10:40:39;15.30;65.30
69677;DHT22;56914;51.058;9.326;2022-12-29T10:41:49;15.30;65.00
69677;DHT22;56914;51.058;9.326;2022-12-29T10:42:56;15.30;64.90
69677;DHT22;56914;51.058;9.326;2022-12-29T10:44:00;15.30;65.20
69677;DHT22;56914;51.058;9.326;2022-12-29T10:45:05;15.30;65.30
69677;DHT22;56914;51.058;9.326;2022-12-29T10:46:12;15.30;64.80
69677;DHT22;56914;51.058;9.326;2022-12-29T10:47:20;15.30;64.60
69677;DHT22;56914;51.058;9.326;2022-12-29T10:48:28;15.30;65.00
69677;DHT22;56914;51.058;9.326;2022-12-29T10:49:40;15.30;64.60
69677;DHT22;56914;51.058;9.326;2022-12-29T10:50:47;15.30;64.70
69677;DHT22;56914;51.058;9.326;2022-12-29T10:51:55;15.30;64.40
69677;DHT22;56914;51.058;9.326;2022-12-29T10:53:02;15.30;64.40
69677;DHT22;56914;51.058;9.326;2022-12-29T10:54:14;15.40;64.50
69677;DHT22;56914;51.058;9.326;2022-12-29T10:55:21;15.40;64.20
69677;DHT22;56914;51.058;9.326;2022-12-29T10:56:34;15.40;64.10
69677;DHT22;56914;51.058;9.326;2022-12-29T10:57:40;15.40;63.60
69677;DHT22;56914;51.058;9.326;2022-12-29T10:58:47;15.30;63.50
69677;DHT22;56914;51.058;9.326;2022-12-29T10:59:52;15.40;63.50
69677;DHT22;56914;51.058;9.326;2022-12-29T11:00:54;15.30;63.40
69677;DHT22;56914;51.058;9.326;2022-12-29T11:02:19;15.30;63.40
69677;DHT22;56914;51.058;9.326;2022-12-29T11:03:50;15.30;63.40
69677;DHT22;56914;51.058;9.326;2022-12-29T11:05:05;15.30;63.30
69677;DHT22;56914;51.058;9.326;2022-12-29T11:06:18;15.30;63.00
69677;DHT22;56914;51.058;9.326;2022-12-29T11:07:25;15.30;63.00
69677;DHT22;56914;51.058;9.326;2022-12-29T11:08:35;15.40;63.40
69677;DHT22;56914;51.058;9.326;2022-12-29T11:09:40;15.40;63.10
69677;DHT22;56914;51.058;9.326;2022-12-29T11:10:45;15.50;62.60
69677;DHT22;56914;51.058;9.326;2022-12-29T11:11:48;15.50;62.70
69677;DHT22;56914;51.058;9.326;2022-12-29T11:12:59;15.50;62.80
69677;DHT22;56914;51.058;9.326;2022-12-29T11:14:11;15.50;62.80
69677;DHT22;56914;51.058;9.326;2022-12-29T11:15:16;15.50;62.60
69677;DHT22;56914;51.058;9.326;2022-12-29T11:16:28;15.50;62.50
69677;DHT22;56914;51.058;9.326;2022-12-29T11:17:44;15.60;62.30
69677;DHT22;56914;51.058;9.326;2022-12-29T11:18:47;15.60;62.30
69677;DHT22;56914;51.058;9.326;2022-12-29T11:19:50;15.60;62.00
69677;DHT22;56914;51.058;9.326;2022-12-29T11:20:54;15.60;61.80
69677;DHT22;56914;51.058;9.326;2022-12-29T11:22:18;15.50;61.80
69677;DHT22;56914;51.058;9.326;2022-12-29T11:23:31;15.50;61.90
69677;DHT22;56914;51.058;9.326;2022-12-29T11:24:44;15.50;61.80
69677;DHT22;56914;51.058;9.326;2022-12-29T11:26:07;15.50;61.80
69677;DHT22;56914;51.058;9.326;2022-12-29T11:27:16;15.60;61.70
69677;DHT22;56914;51.058;9.326;2022-12-29T11:28:19;15.50;61.70
69677;DHT22;56914;51.058;9.326;2022-12-29T11:29:27;15.60;61.60
69677;DHT22;56914;51.058;9.326;2022-12-29T11:30:32;15.50;61.60
69677;DHT22;56914;51.058;9.326;2022-12-29T11:31:40;15.50;61.80
69677;DHT22;56914;51.058;9.326;2022-12-29T11:32:50;15.50;61.90
69677;DHT22;56914;51.058;9.326;2022-12-29T11:33:54;15.50;62.10
69677;DHT22;56914;51.058;9.326;2022-12-29T11:34:57;15.60;62.10
69677;DHT22;56914;51.058;9.326;2022-12-29T11:36:05;15.60;62.00
69677;DHT22;56914;51.058;9.326;2022-12-29T11:37:14;15.60;61.90
69677;DHT22;56914;51.058;9.326;2022-12-29T11:38:21;15.60;61.30
69677;DHT22;56914;51.058;9.326;2022-12-29T11:39:33;15.60;61.80
69677;DHT22;56914;51.058;9.326;2022-12-29T11:40:39;15.60;62.00
69677;DHT22;56914;51.058;9.326;2022-12-29T11:41:51;15.60;61.50
69677;DHT22;56914;51.058;9.326;2022-12-29T11:42:58;15.70;61.60
69677;DHT22;56914;51.058;9.326;2022-12-29T11:44:06;15.70;61.40
69677;DHT22;56914;51.058;9.326;2022-12-29T11:45:16;15.70;61.10
69677;DHT22;56914;51.058;9.326;2022-12-29T11:46:24;15.70;61.60
69677;DHT22;56914;51.058;9.326;2022-12-29T11:47:31;15.70;61.20
69677;DHT22;56914;51.058;9.326;2022-12-29T11:48:40;15.70;61.20
69677;DHT22;56914;51.058;9.326;2022-12-29T11:49:50;15.70;60.80
69677;DHT22;56914;51.058;9.326;2022-12-29T11:50:57;15.70;61.20
69677;DHT22;56914;51.058;9.326;2022-12-29T11:52:01;15.70;61.20
69677;DHT22;56914;51.058;9.326;2022-12-29T11:53:16;15.80;61.50
69677;DHT22;56914;51.058;9.326;2022-12-29T11:54:26;15.80;61.60
69677;DHT22;56914;51.058;9.326;2022-12-29T11:55:31;15.80;61.50
69677;DHT22;56914;51.058;9.326;2022-12-29T11:56:37;15.80;61.30
69677;DHT22;56914;51.058;9.326;2022-12-29T11:57:44;15.90;61.90
69677;DHT22;56914;51.058;9.326;2022-12-29T11:58:46;15.90;61.20